createdAt,value
2017-05-27T00:01:24.670Z,99.90
2017-05-27T00:03:53.789Z,99.90
2017-05-27T00:06:22.889Z,99.90
2017-05-27T00:08:52.016Z,99.90
2017-05-27T00:11:21.121Z,99.90
2017-05-27T00:13:50.242Z,99.90
2017-05-27T00:16:19.331Z,99.90
2017-05-27T00:18:48.461Z,99.90
2017-05-27T00:21:17.559Z,99.90
2017-05-27T00:23:46.679Z,99.90
2017-05-27T00:26:15.809Z,99.90
2017-05-27T00:28:44.899Z,99.90
2017-05-27T00:31:14.029Z,99.90
2017-05-27T00:33:43.148Z,99.90
2017-05-27T00:36:12.276Z,99.90
2017-05-27T00:38:41.381Z,99.90
2017-05-27T00:41:10.619Z,99.90
2017-05-27T00:43:39.717Z,99.90
2017-05-27T00:46:09.524Z,99.90
2017-05-27T00:48:38.621Z,99.90
2017-05-27T00:51:07.758Z,99.90
2017-05-27T00:53:36.873Z,99.90
2017-05-27T00:56:06.001Z,99.90
2017-05-27T00:58:35.097Z,99.90
2017-05-27T01:01:04.191Z,99.90
2017-05-27T01:03:32.542Z,99.90
2017-05-27T01:06:01.641Z,99.90
2017-05-27T01:08:30.786Z,99.90
2017-05-27T01:10:59.873Z,99.90
2017-05-27T01:13:29.009Z,99.90
2017-05-27T01:15:58.109Z,99.90
2017-05-27T01:18:27.233Z,99.90
2017-05-27T01:20:57.044Z,99.90
2017-05-27T01:23:26.182Z,99.90
2017-05-27T01:25:55.280Z,99.90
2017-05-27T01:28:24.378Z,99.90
2017-05-27T01:30:53.491Z,99.90
2017-05-27T01:33:22.593Z,99.90
2017-05-27T01:35:51.709Z,99.90
2017-05-27T01:38:20.804Z,99.90
2017-05-27T01:40:49.924Z,99.90
2017-05-27T01:43:19.023Z,99.90
2017-05-27T01:45:48.148Z,99.90
2017-05-27T01:48:17.254Z,99.90
2017-05-27T01:50:46.346Z,99.90
2017-05-27T01:53:15.457Z,99.90
2017-05-27T01:55:44.553Z,99.90
2017-05-27T01:58:13.754Z,99.90
2017-05-27T02:00:42.882Z,99.90
2017-05-27T02:03:11.986Z,99.90
2017-05-27T02:05:41.112Z,99.90
2017-05-27T02:08:10.216Z,99.90
2017-05-27T02:10:39.345Z,99.90
2017-05-27T02:13:08.444Z,99.90
2017-05-27T02:15:37.556Z,99.90
2017-05-27T02:18:06.660Z,99.90
2017-05-27T02:20:35.796Z,99.90
2017-05-27T02:23:04.888Z,99.90
2017-05-27T02:25:33.984Z,99.90
2017-05-27T02:28:02.365Z,99.90
2017-05-27T02:30:31.562Z,99.90
2017-05-27T02:33:00.690Z,99.90
2017-05-27T02:35:29.854Z,99.90
2017-05-27T02:37:59.231Z,99.90
2017-05-27T02:40:28.292Z,99.90
2017-05-27T02:42:57.389Z,99.90
2017-05-27T02:45:26.552Z,99.90
2017-05-27T02:47:55.652Z,99.90
2017-05-27T02:50:24.834Z,99.90
2017-05-27T02:52:53.872Z,99.90
2017-05-27T02:55:23.001Z,99.90
2017-05-27T02:57:52.200Z,99.90
2017-05-27T03:00:21.312Z,99.90
2017-05-27T03:02:50.437Z,99.90
2017-05-27T03:05:19.504Z,99.90
2017-05-27T03:07:48.623Z,99.90
2017-05-27T03:10:17.724Z,99.90
2017-05-27T03:12:46.862Z,99.90
2017-05-27T03:15:15.945Z,99.90
2017-05-27T03:17:45.033Z,99.90
2017-05-27T03:20:14.179Z,99.90
2017-05-27T03:22:43.279Z,99.90
2017-05-27T03:25:12.400Z,99.90
2017-05-27T03:27:41.489Z,99.90
2017-05-27T03:30:09.850Z,99.90
2017-05-27T03:32:38.932Z,99.90
2017-05-27T03:35:08.057Z,99.90
2017-05-27T03:37:37.268Z,99.90
2017-05-27T03:40:06.360Z,99.90
2017-05-27T03:42:35.481Z,99.90
2017-05-27T03:45:04.652Z,99.90
2017-05-27T03:47:33.780Z,99.90
2017-05-27T03:50:02.878Z,99.90
2017-05-27T03:52:32.006Z,99.90
2017-05-27T03:55:01.201Z,99.90
2017-05-27T03:57:30.291Z,99.90
2017-05-27T03:59:59.413Z,99.90
2017-05-27T04:02:28.612Z,99.90
2017-05-27T04:04:57.745Z,99.90
2017-05-27T04:07:26.834Z,99.90
2017-05-27T04:09:55.932Z,99.90
2017-05-27T04:12:25.108Z,99.90
2017-05-27T04:14:54.201Z,99.90
2017-05-27T04:17:23.330Z,99.90
2017-05-27T04:19:52.482Z,99.90
2017-05-27T04:22:21.668Z,99.90
2017-05-27T04:24:50.756Z,99.90
2017-05-27T04:27:19.893Z,99.90
2017-05-27T04:29:48.992Z,99.90
2017-05-27T04:32:18.052Z,99.90
2017-05-27T04:34:47.169Z,99.90
2017-05-27T04:37:15.507Z,99.90
2017-05-27T04:39:44.639Z,99.90
2017-05-27T04:42:13.748Z,99.90
2017-05-27T04:44:42.856Z,99.90
2017-05-27T04:47:12.019Z,99.90
2017-05-27T04:49:41.145Z,99.90
2017-05-27T04:52:10.241Z,99.90
2017-05-27T04:54:39.361Z,99.90
2017-05-27T04:57:08.478Z,99.90
2017-05-27T04:59:37.608Z,99.90
2017-05-27T05:02:06.708Z,99.90
2017-05-27T05:04:35.825Z,99.90
2017-05-27T05:07:04.954Z,99.90
2017-05-27T05:09:34.057Z,99.90
2017-05-27T05:12:03.173Z,99.90
2017-05-27T05:14:32.307Z,99.90
2017-05-27T05:17:01.461Z,99.90
2017-05-27T05:19:30.551Z,99.90
2017-05-27T05:21:59.645Z,99.90
2017-05-27T05:24:28.760Z,99.90
2017-05-27T05:26:57.868Z,99.90
2017-05-27T05:29:26.217Z,99.90
2017-05-27T05:31:55.313Z,99.90
2017-05-27T05:34:24.454Z,99.90
2017-05-27T05:36:53.547Z,99.90
2017-05-27T05:39:22.660Z,99.90
2017-05-27T05:41:51.768Z,99.90
2017-05-27T05:44:20.869Z,99.90
2017-05-27T05:46:50.022Z,99.90
2017-05-27T05:49:19.122Z,99.90
2017-05-27T05:51:48.219Z,99.90
2017-05-27T05:54:16.581Z,99.90
2017-05-27T05:56:45.674Z,99.90
2017-05-27T05:59:14.791Z,99.90
2017-05-27T06:01:43.904Z,99.90
2017-05-27T06:04:13.053Z,99.90
2017-05-27T06:06:42.224Z,99.90
2017-05-27T06:09:11.317Z,99.90
2017-05-27T06:11:40.437Z,99.90
2017-05-27T06:14:09.682Z,99.90
2017-05-27T06:16:38.780Z,99.90
2017-05-27T06:19:07.925Z,99.90
2017-05-27T06:21:37.022Z,99.90
2017-05-27T06:24:06.109Z,99.90
2017-05-27T06:26:35.286Z,99.90
2017-05-27T06:29:04.370Z,99.90
2017-05-27T06:31:33.497Z,99.90
2017-05-27T06:34:02.637Z,99.90
2017-05-27T06:36:31.731Z,99.90
2017-05-27T06:39:00.847Z,99.90
2017-05-27T06:41:29.933Z,99.90
2017-05-27T06:43:59.048Z,99.90
2017-05-27T06:46:28.141Z,99.90
2017-05-27T06:48:57.253Z,99.90
2017-05-27T06:51:26.365Z,99.50
2017-05-27T06:53:55.450Z,99.50
2017-05-27T06:56:24.549Z,98.50
2017-05-27T06:58:53.686Z,98.60
2017-05-27T07:01:22.788Z,98.00
2017-05-27T07:03:51.882Z,97.00
2017-05-27T07:06:20.985Z,97.30
2017-05-27T07:08:50.089Z,96.30
2017-05-27T07:11:19.204Z,95.00
2017-05-27T07:13:48.325Z,94.90
2017-05-27T07:16:17.409Z,96.00
2017-05-27T07:18:46.530Z,95.10
2017-05-27T07:21:15.618Z,95.70
2017-05-27T07:23:44.723Z,95.20
2017-05-27T07:26:13.833Z,94.60
2017-05-27T07:28:42.933Z,93.60
2017-05-27T07:31:12.028Z,93.90
2017-05-27T07:33:41.154Z,93.00
2017-05-27T07:36:10.272Z,93.40
2017-05-27T07:38:39.370Z,92.00
2017-05-27T07:41:08.491Z,92.60
2017-05-27T07:43:37.576Z,92.00
2017-05-27T07:46:06.680Z,91.30
2017-05-27T07:48:35.770Z,90.30
2017-05-27T07:51:04.879Z,91.20
2017-05-27T07:53:33.962Z,90.50
2017-05-27T07:56:03.084Z,90.50
2017-05-27T07:58:32.179Z,88.20
2017-05-27T08:01:01.293Z,88.30
2017-05-27T08:03:30.373Z,87.80
2017-05-27T08:05:59.734Z,85.80
2017-05-27T08:08:28.809Z,88.90
2017-05-27T08:10:57.892Z,87.00
2017-05-27T08:13:27.097Z,88.90
2017-05-27T08:15:56.189Z,85.00
2017-05-27T08:18:25.302Z,85.20
2017-05-27T08:20:54.389Z,85.60
2017-05-27T08:23:23.503Z,84.90
2017-05-27T08:25:52.577Z,84.60
2017-05-27T08:28:21.789Z,84.30
2017-05-27T08:30:50.905Z,82.70
2017-05-27T08:33:25.745Z,81.40
2017-05-27T08:35:54.834Z,81.40
2017-05-27T08:38:23.949Z,79.40
2017-05-27T08:40:52.310Z,79.40
2017-05-27T08:43:21.386Z,78.60
2017-05-27T08:45:50.517Z,78.30
2017-05-27T08:48:19.590Z,81.10
2017-05-27T08:50:48.679Z,80.80
2017-05-27T08:53:18.161Z,78.70
2017-05-27T08:55:47.250Z,77.40
2017-05-27T08:58:16.363Z,78.10
2017-05-27T09:00:45.484Z,77.50
2017-05-27T09:03:14.599Z,75.80
2017-05-27T09:05:43.696Z,78.40
2017-05-27T09:08:13.789Z,76.80
2017-05-27T09:10:43.685Z,76.10
2017-05-27T09:13:12.789Z,76.90
2017-05-27T09:15:41.925Z,79.10
2017-05-27T09:18:10.317Z,79.10
2017-05-27T09:20:39.536Z,75.90
2017-05-27T09:23:08.663Z,76.50
2017-05-27T09:25:38.472Z,75.60
2017-05-27T09:28:07.604Z,75.10
2017-05-27T09:30:35.970Z,75.30
2017-05-27T09:33:05.083Z,72.90
2017-05-27T09:35:34.226Z,71.70
2017-05-27T09:38:04.176Z,72.90
2017-05-27T09:40:33.328Z,71.20
2017-05-27T09:43:02.520Z,70.80
2017-05-27T09:45:31.702Z,72.70
2017-05-27T09:48:02.409Z,67.60
2017-05-27T09:50:31.573Z,68.90
2017-05-27T09:53:00.699Z,66.20
2017-05-27T09:55:30.143Z,66.80
2017-05-27T09:57:59.281Z,68.40
2017-05-27T10:00:28.421Z,68.30
2017-05-27T10:02:57.547Z,69.20
2017-05-27T10:05:27.086Z,66.70
2017-05-27T10:07:56.262Z,66.10
2017-05-27T10:10:26.289Z,64.70
2017-05-27T10:12:55.484Z,64.50
2017-05-27T10:15:23.913Z,64.30
2017-05-27T10:17:53.094Z,63.60
2017-05-27T10:20:22.253Z,66.90
2017-05-27T10:22:52.236Z,66.30
2017-05-27T10:25:21.433Z,63.30
2017-05-27T10:27:50.541Z,62.80
2017-05-27T10:30:19.733Z,62.20
2017-05-27T10:32:48.861Z,62.10
2017-05-27T10:35:18.278Z,63.30
2017-05-27T10:37:47.353Z,60.40
2017-05-27T10:40:15.741Z,60.40
2017-05-27T10:42:44.856Z,63.80
2017-05-27T10:45:13.977Z,58.70
2017-05-27T10:47:43.231Z,57.70
2017-05-27T10:50:12.345Z,58.90
2017-05-27T10:52:41.627Z,60.00
2017-05-27T10:55:10.788Z,59.00
2017-05-27T10:57:39.904Z,56.00
2017-05-27T11:00:09.089Z,58.10
2017-05-27T11:02:38.769Z,58.40
2017-05-27T11:05:08.525Z,60.50
2017-05-27T11:07:37.817Z,56.00
2017-05-27T11:10:07.011Z,54.60
2017-05-27T11:12:36.158Z,54.10
2017-05-27T11:15:05.648Z,55.10
2017-05-27T11:17:34.755Z,55.30
2017-05-27T11:20:04.728Z,55.90
2017-05-27T11:22:33.933Z,54.10
2017-05-27T11:25:03.393Z,54.60
2017-05-27T11:27:33.400Z,52.50
2017-05-27T11:30:01.770Z,52.40
2017-05-27T11:32:31.142Z,51.70
2017-05-27T11:35:00.282Z,49.60
2017-05-27T11:37:28.649Z,49.50
2017-05-27T11:39:57.823Z,52.60
2017-05-27T11:42:27.834Z,49.20
2017-05-27T11:44:57.037Z,48.00
2017-05-27T11:47:26.189Z,50.00
2017-05-27T11:49:56.360Z,50.30
2017-05-27T11:52:26.410Z,49.00
2017-05-27T11:54:55.544Z,48.10
2017-05-27T11:57:25.070Z,46.70
2017-05-27T11:59:54.169Z,46.70
2017-05-27T12:02:23.435Z,47.80
2017-05-27T12:04:52.557Z,48.80
2017-05-27T12:07:21.742Z,46.70
2017-05-27T12:09:52.645Z,44.60
2017-05-27T12:12:21.809Z,43.80
2017-05-27T12:14:51.002Z,45.00
2017-05-27T12:17:19.395Z,45.10
2017-05-27T12:19:48.525Z,42.60
2017-05-27T12:22:17.751Z,44.60
2017-05-27T12:24:46.938Z,44.50
2017-05-27T12:27:15.354Z,44.20
2017-05-27T12:29:44.464Z,39.90
2017-05-27T12:32:13.979Z,41.00
2017-05-27T12:34:42.361Z,41.10
2017-05-27T12:37:11.550Z,39.00
2017-05-27T12:39:40.693Z,40.60
2017-05-27T12:42:10.101Z,39.60
2017-05-27T12:44:39.197Z,41.20
2017-05-27T12:47:08.274Z,39.80
2017-05-27T12:49:37.395Z,37.30
2017-05-27T12:52:06.570Z,40.00
2017-05-27T12:54:35.642Z,38.20
2017-05-27T12:57:04.759Z,37.70
2017-05-27T12:59:33.837Z,37.50
2017-05-27T13:02:02.948Z,37.00
2017-05-27T13:04:32.047Z,35.90
2017-05-27T13:07:01.385Z,37.70
2017-05-27T13:09:30.481Z,37.20
2017-05-27T13:11:59.570Z,37.10
2017-05-27T13:14:28.712Z,36.00
2017-05-27T13:16:57.127Z,35.90
2017-05-27T13:19:26.630Z,37.00
2017-05-27T13:21:56.215Z,36.40
2017-05-27T13:24:25.288Z,37.10
2017-05-27T13:26:54.392Z,36.20
2017-05-27T13:29:23.480Z,35.70
2017-05-27T13:31:52.600Z,36.60
2017-05-27T13:34:22.329Z,36.60
2017-05-27T13:36:51.484Z,36.10
2017-05-27T13:39:20.577Z,35.60
2017-05-27T13:41:49.676Z,32.90
2017-05-27T13:44:18.785Z,34.90
2017-05-27T13:46:47.881Z,35.40
2017-05-27T13:49:17.003Z,35.10
2017-05-27T13:51:46.181Z,34.40
2017-05-27T13:54:15.344Z,35.70
2017-05-27T13:56:44.428Z,35.20
2017-05-27T13:59:12.843Z,35.20
2017-05-27T14:01:41.944Z,33.50
2017-05-27T14:04:11.028Z,34.20
2017-05-27T14:06:40.153Z,34.60
2017-05-27T14:09:09.237Z,33.70
2017-05-27T14:11:38.420Z,33.50
2017-05-27T14:14:08.014Z,34.20
2017-05-27T14:16:36.349Z,34.20
2017-05-27T14:19:05.465Z,34.90
2017-05-27T14:21:34.541Z,34.00
2017-05-27T14:24:03.668Z,35.50
2017-05-27T14:26:32.770Z,36.00
2017-05-27T14:29:01.890Z,38.10
2017-05-27T14:31:30.983Z,38.90
2017-05-27T14:34:00.069Z,39.10
2017-05-27T14:36:29.455Z,38.80
2017-05-27T14:38:58.546Z,39.50
2017-05-27T14:41:27.649Z,39.50
2017-05-27T14:43:56.757Z,39.40
2017-05-27T14:46:25.845Z,39.90
2017-05-27T14:48:54.968Z,41.40
2017-05-27T14:51:24.054Z,41.90
2017-05-27T14:53:53.173Z,42.00
2017-05-27T14:56:22.268Z,41.70
2017-05-27T14:58:51.373Z,43.10
2017-05-27T15:01:20.491Z,41.70
2017-05-27T15:03:49.580Z,42.80
2017-05-27T15:06:18.857Z,43.60
2017-05-27T15:08:47.952Z,45.70
2017-05-27T15:11:17.065Z,43.90
2017-05-27T15:13:46.174Z,45.10
2017-05-27T15:16:15.296Z,44.20
2017-05-27T15:18:44.493Z,44.90
2017-05-27T15:21:13.604Z,44.70
2017-05-27T15:23:42.759Z,45.10
2017-05-27T15:26:11.930Z,45.80
2017-05-27T15:28:40.355Z,45.80
2017-05-27T15:31:09.472Z,45.40
2017-05-27T15:33:38.626Z,44.90
2017-05-27T15:36:07.752Z,46.00
2017-05-27T15:38:36.127Z,45.90
2017-05-27T15:41:05.273Z,46.80
2017-05-27T15:43:33.693Z,46.80
2017-05-27T15:46:02.086Z,44.50
2017-05-27T15:48:31.442Z,46.50
2017-05-27T15:51:00.601Z,45.40
2017-05-27T15:53:29.728Z,47.20
2017-05-27T15:55:58.858Z,46.10
2017-05-27T15:58:27.584Z,46.00
2017-05-27T16:00:56.762Z,46.60
2017-05-27T16:03:25.957Z,46.60
2017-05-27T16:05:54.338Z,46.50
2017-05-27T16:08:23.507Z,47.40
2017-05-27T16:10:51.964Z,47.40
2017-05-27T16:13:21.106Z,47.40
2017-05-27T16:15:49.470Z,47.40
2017-05-27T16:18:19.440Z,46.40
2017-05-27T16:20:48.613Z,47.60
2017-05-27T16:23:22.642Z,46.80
2017-05-27T16:25:52.630Z,46.60
2017-05-27T16:28:25.002Z,47.90
2017-05-27T16:30:55.001Z,48.50
2017-05-27T16:33:24.879Z,47.50
2017-05-27T16:35:54.592Z,47.90
2017-05-27T16:38:23.746Z,47.90
2017-05-27T16:40:52.892Z,46.50
2017-05-27T16:43:22.078Z,47.80
2017-05-27T16:45:51.205Z,48.20
2017-05-27T16:48:20.335Z,47.60
2017-05-27T16:50:50.519Z,46.90
2017-05-27T16:53:19.654Z,47.00
2017-05-27T16:55:48.814Z,48.60
2017-05-27T16:58:17.925Z,47.90
2017-05-27T17:00:46.346Z,47.80
2017-05-27T17:03:16.188Z,49.10
2017-05-27T17:05:45.412Z,48.80
2017-05-27T17:08:14.530Z,49.20
2017-05-27T17:10:43.684Z,48.20
2017-05-27T17:13:12.837Z,48.90
2017-05-27T17:15:41.993Z,48.20
2017-05-27T17:18:11.077Z,48.30
2017-05-27T17:20:39.492Z,48.10
2017-05-27T17:23:08.636Z,49.80
2017-05-27T17:25:37.738Z,51.60
2017-05-27T17:28:06.924Z,51.50
2017-05-27T17:30:36.086Z,51.00
2017-05-27T17:33:05.211Z,51.40
2017-05-27T17:35:34.390Z,50.50
2017-05-27T17:38:02.805Z,50.40
2017-05-27T17:40:31.987Z,51.50
2017-05-27T17:43:01.112Z,51.10
2017-05-27T17:45:30.211Z,51.60
2017-05-27T17:47:59.405Z,53.40
2017-05-27T17:50:28.604Z,52.00
2017-05-27T17:52:57.695Z,52.60
2017-05-27T17:55:26.815Z,52.20
2017-05-27T17:57:55.893Z,53.10
2017-05-27T18:00:25.139Z,52.30
2017-05-27T18:02:54.837Z,51.30
2017-05-27T18:05:24.225Z,52.10
2017-05-27T18:07:53.302Z,53.40
2017-05-27T18:10:22.782Z,52.70
2017-05-27T18:12:51.853Z,52.10
2017-05-27T18:15:20.970Z,52.20
2017-05-27T18:17:50.065Z,53.10
2017-05-27T18:20:19.175Z,52.40
2017-05-27T18:22:48.263Z,54.90
2017-05-27T18:25:17.533Z,53.60
2017-05-27T18:27:46.630Z,54.50
2017-05-27T18:30:15.740Z,54.50
2017-05-27T18:32:44.841Z,55.10
2017-05-27T18:35:13.942Z,56.20
2017-05-27T18:37:43.049Z,56.30
2017-05-27T18:40:12.122Z,57.90
2017-05-27T18:42:41.225Z,57.80
2017-05-27T18:45:10.321Z,58.40
2017-05-27T18:47:39.498Z,59.80
2017-05-27T18:50:08.588Z,61.00
2017-05-27T18:52:37.700Z,61.30
2017-05-27T18:55:06.797Z,63.20
2017-05-27T18:57:35.896Z,64.20
2017-05-27T19:00:04.996Z,65.30
2017-05-27T19:02:34.077Z,66.60
2017-05-27T19:05:03.258Z,68.70
2017-05-27T19:07:32.288Z,68.90
2017-05-27T19:10:01.455Z,70.40
2017-05-27T19:12:30.581Z,71.40
2017-05-27T19:14:59.670Z,71.30
2017-05-27T19:17:28.792Z,71.90
2017-05-27T19:19:57.869Z,72.30
2017-05-27T19:22:26.982Z,74.70
2017-05-27T19:24:56.082Z,72.90
2017-05-27T19:27:24.588Z,72.70
2017-05-27T19:29:53.686Z,74.10
2017-05-27T19:32:22.809Z,74.60
2017-05-27T19:34:52.561Z,75.30
2017-05-27T19:37:21.649Z,75.30
2017-05-27T19:39:50.754Z,76.20
2017-05-27T19:42:19.843Z,76.20
2017-05-27T19:44:48.952Z,76.50
2017-05-27T19:47:18.053Z,76.50
2017-05-27T19:49:47.161Z,76.60
2017-05-27T19:52:16.243Z,77.30
2017-05-27T19:54:45.330Z,77.70
2017-05-27T19:57:14.416Z,77.80
2017-05-27T19:59:43.703Z,77.60
2017-05-27T20:02:12.850Z,78.80
2017-05-27T20:04:42.082Z,77.40
2017-05-27T20:07:11.262Z,79.10
2017-05-27T20:09:40.445Z,79.20
2017-05-27T20:12:10.147Z,79.40
2017-05-27T20:14:39.237Z,79.00
2017-05-27T20:17:08.357Z,79.30
2017-05-27T20:19:37.444Z,80.10
2017-05-27T20:22:06.525Z,79.00
2017-05-27T20:24:35.651Z,79.00
2017-05-27T20:27:05.477Z,79.60
2017-05-27T20:29:34.648Z,79.90
2017-05-27T20:32:03.737Z,81.10
2017-05-27T20:34:32.855Z,80.80
2017-05-27T20:37:01.946Z,81.50
2017-05-27T20:39:31.084Z,81.20
2017-05-27T20:42:00.189Z,82.10
2017-05-27T20:44:29.273Z,82.30
2017-05-27T20:46:58.415Z,82.70
2017-05-27T20:49:27.588Z,83.10
2017-05-27T20:51:58.384Z,82.50
2017-05-27T20:54:27.597Z,83.80
2017-05-27T20:56:56.709Z,83.90
2017-05-27T20:59:25.801Z,83.30
2017-05-27T21:01:54.939Z,84.00
2017-05-27T21:04:24.091Z,84.30
2017-05-27T21:06:53.194Z,84.10
2017-05-27T21:09:22.270Z,85.30
2017-05-27T21:11:51.468Z,85.90
2017-05-27T21:14:19.805Z,85.80
2017-05-27T21:16:48.899Z,86.40
2017-05-27T21:19:17.998Z,86.60
2017-05-27T21:21:47.093Z,86.80
2017-05-27T21:24:16.265Z,87.10
2017-05-27T21:26:45.369Z,86.90
2017-05-27T21:29:14.450Z,86.80
2017-05-27T21:31:43.568Z,86.50
2017-05-27T21:34:11.893Z,86.60
2017-05-27T21:36:40.981Z,87.30
2017-05-27T21:39:10.088Z,87.60
2017-05-27T21:41:39.212Z,87.50
2017-05-27T21:44:08.353Z,87.20
2017-05-27T21:46:37.462Z,87.80
2017-05-27T21:49:06.591Z,87.70
2017-05-27T21:51:35.682Z,88.00
2017-05-27T21:54:04.792Z,88.10
2017-05-27T21:56:33.888Z,88.00
2017-05-27T21:59:02.973Z,88.60
2017-05-27T22:01:32.057Z,88.90
2017-05-27T22:04:01.200Z,88.60
2017-05-27T22:06:30.367Z,88.90
2017-05-27T22:08:59.493Z,89.90
2017-05-27T22:11:28.605Z,89.60
2017-05-27T22:13:57.686Z,89.30
2017-05-27T22:16:27.206Z,88.70
2017-05-27T22:18:56.518Z,88.70
2017-05-27T22:21:25.601Z,89.00
2017-05-27T22:23:54.894Z,89.30
2017-05-27T22:26:23.993Z,89.10
2017-05-27T22:28:53.098Z,89.40
2017-05-27T22:31:22.600Z,90.00
2017-05-27T22:33:51.883Z,89.90
2017-05-27T22:36:20.982Z,89.90
2017-05-27T22:38:50.082Z,89.50
2017-05-27T22:41:20.237Z,90.20
2017-05-27T22:43:49.452Z,90.00
2017-05-27T22:46:18.566Z,90.20
2017-05-27T22:48:47.673Z,90.10
2017-05-27T22:51:17.239Z,89.50
2017-05-27T22:53:46.487Z,90.00
2017-05-27T22:56:15.665Z,90.30
2017-05-27T22:58:44.005Z,90.30
2017-05-27T23:01:13.104Z,90.60
2017-05-27T23:03:42.221Z,90.60
2017-05-27T23:06:11.315Z,90.70
2017-05-27T23:08:40.415Z,91.10
2017-05-27T23:11:09.506Z,91.10
2017-05-27T23:13:38.585Z,90.80
2017-05-27T23:16:07.676Z,91.40
2017-05-27T23:18:36.830Z,91.20
2017-05-27T23:21:05.934Z,91.70
2017-05-27T23:23:35.031Z,91.70
2017-05-27T23:26:04.140Z,91.90
2017-05-27T23:28:33.250Z,91.70
2017-05-27T23:31:02.334Z,91.80
2017-05-27T23:33:30.683Z,91.80
2017-05-27T23:35:59.757Z,92.40
2017-05-27T23:38:28.877Z,92.00
2017-05-27T23:40:58.837Z,92.20
2017-05-27T23:43:28.010Z,92.50
2017-05-27T23:45:57.155Z,92.00
2017-05-27T23:48:26.247Z,92.30
2017-05-27T23:50:55.353Z,92.70
2017-05-27T23:53:24.457Z,92.70
2017-05-27T23:55:53.545Z,92.60
2017-05-27T23:58:22.662Z,93.00
